createdAt,value
2022-08-22T04:15:36.022Z,99771.94
2022-08-22T04:18:25.360Z,99780.91
2022-08-22T04:21:26.091Z,99784.47
2022-08-22T04:24:31.921Z,99783.44
2022-08-22T04:27:07.380Z,99781.84
2022-08-22T04:29:43.973Z,99791.72
2022-08-22T04:32:19.411Z,99784.09
2022-08-22T04:34:51.793Z,99791.94
2022-08-22T04:37:26.341Z,99795.84
2022-08-22T04:40:00.923Z,99791.34
2022-08-22T04:42:34.569Z,99792.16
2022-08-22T04:45:10.686Z,99802.91
2022-08-22T04:47:43.800Z,99804.13
2022-08-22T04:50:21.282Z,99810.53
2022-08-22T04:53:15.094Z,99809.91
2022-08-22T04:55:53.616Z,99812.38
2022-08-22T04:58:34.375Z,99818.31
2022-08-22T05:01:12.090Z,99808.84
2022-08-22T05:03:47.046Z,99810.28
2022-08-22T05:06:19.287Z,99809.50
2022-08-22T05:08:54.010Z,99814.88
2022-08-22T05:11:25.169Z,99810.94
2022-08-22T05:13:57.888Z,99820.22
2022-08-22T05:16:33.126Z,99820.22
2022-08-22T05:19:06.702Z,99816.06
2022-08-22T05:21:39.113Z,99815.66
2022-08-22T05:24:11.999Z,99813.22
2022-08-22T05:26:44.584Z,99808.25
2022-08-22T05:29:15.942Z,99811.38
2022-08-22T05:31:49.886Z,99804.75
2022-08-22T05:34:24.128Z,99816.31
2022-08-22T05:36:56.841Z,99812.38
2022-08-22T05:39:27.912Z,99807.44
2022-08-22T05:42:03.403Z,99824.78
2022-08-22T05:44:34.382Z,99814.88
2022-08-22T05:47:06.544Z,99818.78
2022-08-22T05:49:41.576Z,99818.56
2022-08-22T05:52:22.568Z,99813.22
2022-08-22T05:54:57.315Z,99821.47
2022-08-22T05:57:31.427Z,99817.94
2022-08-22T06:00:04.698Z,99822.44
2022-08-22T06:02:53.635Z,99834.94
2022-08-22T06:05:28.744Z,99830.31
2022-08-22T06:08:04.552Z,99827.56
2022-08-22T06:10:41.264Z,99832.91
2022-08-22T06:13:16.435Z,99825.34
2022-08-22T06:15:57.870Z,99839.75
2022-08-22T06:18:28.758Z,99824.09
2022-08-22T06:21:02.129Z,99830.22
2022-08-22T06:23:35.178Z,99825.91
2022-08-22T06:26:05.497Z,99824.69
2022-08-22T06:28:38.536Z,99822.84
2022-08-22T06:31:28.015Z,99824.03
2022-08-22T06:34:01.045Z,99831.91
2022-08-22T06:36:33.286Z,99836.03
2022-08-22T06:39:11.371Z,99832.31
2022-08-22T06:41:44.519Z,99841.41
2022-08-22T06:44:18.809Z,99837.94
2022-08-22T06:46:50.307Z,99836.31
2022-08-22T06:49:20.495Z,99848.69
2022-08-22T06:51:52.251Z,99847.84
2022-08-22T06:54:25.893Z,99839.41
2022-08-22T06:56:56.538Z,99856.25
2022-08-22T06:59:28.912Z,99846.19
2022-08-22T07:02:04.234Z,99844.94
2022-08-22T07:04:33.244Z,99846.19
2022-08-22T07:07:03.748Z,99843.09
2022-08-22T07:09:35.896Z,99847.81
2022-08-22T07:12:12.207Z,99849.72
2022-08-22T07:14:42.977Z,99845.94
2022-08-22T07:17:18.723Z,99843.69
2022-08-22T07:19:55.392Z,99837.75
2022-08-22T07:22:27.842Z,99842.06
2022-08-22T07:25:00.647Z,99841.66
2022-08-22T07:27:42.414Z,99842.53
2022-08-22T07:30:14.093Z,99840.41
2022-08-22T07:32:51.544Z,99845.78
2022-08-22T07:35:23.245Z,99845.38
2022-08-22T07:38:05.330Z,99844.16
2022-08-22T07:40:41.571Z,99844.94
2022-08-22T07:43:29.793Z,99848.50
2022-08-22T07:46:01.621Z,99849.13
2022-08-22T07:48:38.296Z,99850.16
2022-08-22T07:51:19.450Z,99849.31
2022-08-22T07:54:00.706Z,99849.31
2022-08-22T07:56:33.274Z,99845.00
2022-08-22T07:59:13.073Z,99849.97
2022-08-22T08:01:46.953Z,99859.84
2022-08-22T08:04:18.960Z,99858.66
2022-08-22T08:06:49.450Z,99862.34
2022-08-22T08:09:20.562Z,99860.09
2022-08-22T08:11:52.339Z,99860.31
2022-08-22T08:14:23.532Z,99857.38
2022-08-22T08:17:02.559Z,99854.50
2022-08-22T08:19:32.943Z,99858.66
2022-08-22T08:22:01.642Z,99864.03
2022-08-22T08:24:39.977Z,99857.84
2022-08-22T08:27:33.503Z,99861.53
2022-08-22T08:30:07.062Z,99854.50
2022-08-22T08:32:39.599Z,99853.09
2022-08-22T08:35:23.488Z,99855.16
2022-08-22T08:38:00.134Z,99850.81
2022-08-22T08:40:51.674Z,99845.47
2022-08-22T08:43:30.077Z,99851.66
2022-08-22T08:46:24.941Z,99840.94
2022-08-22T08:49:26.328Z,99834.34
2022-08-22T08:52:44.027Z,99834.34
2022-08-22T08:58:32.048Z,99833.69
2022-08-22T09:01:14.122Z,99829.19
2022-08-22T09:04:20.781Z,99838.91
2022-08-22T09:07:11.607Z,99828.16
2022-08-22T09:13:12.370Z,99830.22
2022-08-22T09:16:05.430Z,99837.03
2022-08-22T09:18:57.228Z,99838.06
2022-08-22T09:21:47.218Z,99843.44
2022-08-22T09:24:52.624Z,99839.38
2022-08-22T09:27:33.792Z,99836.22
2022-08-22T09:30:11.619Z,99846.59
2022-08-22T09:32:54.654Z,99835.25
2022-08-22T09:35:29.532Z,99852.19
2022-08-22T09:38:15.088Z,99830.28
2022-08-22T09:40:15.240Z,99841.38
2022-08-22T09:40:53.766Z,99834.00
2022-08-22T09:43:26.094Z,99839.00
2022-08-22T09:46:08.545Z,99833.63
2022-08-22T09:49:02.182Z,99834.03
2022-08-22T09:51:39.867Z,99840.63
2022-08-22T09:54:23.625Z,99836.72
2022-08-22T09:57:16.838Z,99849.31
2022-08-22T09:59:58.085Z,99838.19
2022-08-22T10:02:36.100Z,99842.31
2022-08-22T10:05:40.325Z,99848.72
2022-08-22T10:08:12.928Z,99849.34
2022-08-22T10:11:12.460Z,99849.34
2022-08-22T10:13:57.801Z,99847.47
2022-08-22T10:16:54.820Z,99849.94
2022-08-22T10:19:29.857Z,99841.69
2022-08-22T10:22:37.894Z,99837.38
2022-08-22T10:25:21.602Z,99832.19
2022-08-22T10:28:10.507Z,99824.97
2022-08-22T10:30:45.888Z,99832.19
2022-08-22T10:33:19.263Z,99839.22
2022-08-22T10:36:01.063Z,99836.31
2022-08-22T10:38:44.004Z,99828.25
2022-08-22T10:41:28.717Z,99824.16
2022-08-22T10:44:08.772Z,99821.47
2022-08-22T10:46:46.231Z,99824.56
2022-08-22T10:49:22.615Z,99829.72
2022-08-22T10:52:14.739Z,99822.88
2022-08-22T10:54:49.566Z,99831.38
2022-08-22T10:57:36.554Z,99822.69
2022-08-22T11:00:14.622Z,99828.25
2022-08-22T11:02:55.628Z,99826.22
2022-08-22T11:05:50.178Z,99823.72
2022-08-22T11:08:48.223Z,99831.19
2022-08-22T11:11:37.918Z,99831.19
2022-08-22T11:14:35.915Z,99817.16
2022-08-22T11:17:31.017Z,99827.69
2022-08-22T11:20:13.691Z,99823.97
2022-08-22T11:22:55.746Z,99819.44
2022-08-22T11:25:41.233Z,99829.13
2022-08-22T11:28:31.955Z,99813.81
2022-08-22T11:31:08.946Z,99818.38
2022-08-22T11:33:47.229Z,99817.97
2022-08-22T11:36:31.146Z,99826.22
2022-08-22T11:39:24.663Z,99817.97
2022-08-22T11:42:05.386Z,99812.41
2022-08-22T11:44:50.514Z,99826.22
2022-08-22T11:47:26.862Z,99824.56
2022-08-22T11:50:02.465Z,99816.91
2022-08-22T11:53:05.380Z,99817.13
2022-08-22T11:55:42.053Z,99819.19
2022-08-22T11:58:32.113Z,99823.53
2022-08-22T12:01:06.063Z,99817.94
2022-08-22T12:03:58.641Z,99822.50
2022-08-22T12:06:42.339Z,99816.72
2022-08-22T12:09:20.165Z,99820.22
2022-08-22T12:12:01.442Z,99818.75
2022-08-22T12:14:39.300Z,99813.59
2022-08-22T12:17:55.780Z,99819.56
2022-08-22T12:20:39.213Z,99827.47
2022-08-22T12:23:48.588Z,99819.19
2022-08-22T12:26:27.164Z,99829.09
2022-08-22T12:29:15.480Z,99822.47
2022-08-22T12:32:27.647Z,99820.63
2022-08-22T12:35:15.934Z,99827.66
2022-08-22T12:37:52.990Z,99828.44
2022-08-22T12:40:36.442Z,99850.16
2022-08-22T12:43:42.767Z,99858.41
2022-08-22T12:46:28.769Z,99847.88
2022-08-22T12:49:23.255Z,99858.63
2022-08-22T12:52:04.419Z,99847.88
2022-08-22T12:55:07.793Z,99851.19
2022-08-22T12:57:43.087Z,99842.91
2022-08-22T13:00:27.070Z,99849.31
2022-08-22T13:03:02.209Z,99851.19
2022-08-22T13:05:37.902Z,99850.56
2022-08-22T13:08:13.976Z,99844.34
2022-08-22T13:10:48.781Z,99851.38
2022-08-22T13:13:31.605Z,99836.50
2022-08-22T13:16:08.672Z,99840.03
2022-08-22T13:18:47.121Z,99841.66
2022-08-22T13:21:31.980Z,99836.91
2022-08-22T13:24:10.443Z,99851.38
2022-08-22T13:26:49.183Z,99850.97
2022-08-22T13:29:26.121Z,99843.94
2022-08-22T13:32:01.947Z,99837.56
2022-08-22T13:34:40.192Z,99845.38
2022-08-22T13:37:17.005Z,99831.34
2022-08-22T13:39:49.192Z,99838.38
2022-08-22T13:42:30.510Z,99831.78
2022-08-22T13:45:04.651Z,99828.22
2022-08-22T13:47:39.581Z,99834.47
2022-08-22T13:50:15.226Z,99831.34
2022-08-22T13:52:55.236Z,99832.16
2022-08-22T13:55:35.366Z,99840.22
2022-08-22T13:58:12.004Z,99836.06
2022-08-22T14:01:17.529Z,99836.66
2022-08-22T14:03:50.944Z,99844.78
2022-08-22T14:06:35.313Z,99836.28
2022-08-22T14:09:23.629Z,99835.88
2022-08-22T14:12:13.793Z,99839.19
2022-08-22T14:14:46.487Z,99835.25
2022-08-22T14:17:21.512Z,99838.97
2022-08-22T14:19:59.406Z,99832.38
2022-08-22T14:22:34.823Z,99835.25
2022-08-22T14:25:09.265Z,99835.25
2022-08-22T14:27:44.012Z,99820.19
2022-08-22T14:30:19.020Z,99829.09
2022-08-22T14:32:52.466Z,99818.09
2022-08-22T14:35:33.613Z,99822.81
2022-08-22T14:38:27.131Z,99813.94
2022-08-22T14:41:03.255Z,99817.25
2022-08-22T14:43:57.033Z,99809.63
2022-08-22T14:46:31.665Z,99814.91
2022-08-22T14:49:28.870Z,99817.06
2022-08-22T14:52:07.085Z,99820.53
2022-08-22T14:54:38.237Z,99822.81
2022-08-22T14:57:20.020Z,99812.72
2022-08-22T14:59:52.689Z,99814.97
2022-08-22T15:02:27.806Z,99812.28
2022-08-22T15:04:57.571Z,99819.75
2022-08-22T15:07:31.043Z,99819.13
2022-08-22T15:10:03.691Z,99822.44
2022-08-22T15:12:38.800Z,99818.09
2022-08-22T15:15:12.148Z,99820.38
2022-08-22T15:17:44.074Z,99823.06
2022-08-22T15:20:28.070Z,99818.72
2022-08-22T15:22:59.991Z,99816.84
2022-08-22T15:25:33.410Z,99821.19
2022-08-22T15:28:14.461Z,99820.16
2022-08-22T15:30:54.066Z,99827.56
2022-08-22T15:33:25.556Z,99823.63
2022-08-22T15:36:07.745Z,99819.69
2022-08-22T15:38:42.111Z,99819.13
2022-08-22T15:41:42.159Z,99821.81
2022-08-22T15:44:32.580Z,99828.44
2022-08-22T15:47:10.810Z,99823.66
2022-08-22T15:49:50.864Z,99829.03
2022-08-22T15:52:27.216Z,99830.06
2022-08-22T15:55:24.511Z,99827.59
2022-08-22T15:58:06.697Z,99830.50
2022-08-22T16:00:41.945Z,99838.56
2022-08-22T16:03:25.034Z,99833.81
2022-08-22T16:05:56.681Z,99837.31
2022-08-22T16:08:33.311Z,99831.50
2022-08-22T16:11:33.044Z,99843.91
2022-08-22T16:14:25.321Z,99837.66
2022-08-22T16:17:01.952Z,99840.78
2022-08-22T16:19:31.476Z,99846.00
2022-08-22T16:22:16.109Z,99843.94
2022-08-22T16:25:03.148Z,99846.41
2022-08-22T16:27:32.080Z,99848.06
2022-08-22T16:30:16.137Z,99847.44
2022-08-22T16:32:58.240Z,99846.00
2022-08-22T16:36:03.725Z,99846.81
2022-08-22T16:38:41.352Z,99845.97
2022-08-22T16:41:35.713Z,99846.81
2022-08-22T16:44:41.655Z,99846.00
2022-08-22T16:47:14.495Z,99856.31
2022-08-22T16:50:00.308Z,99849.69
2022-08-22T16:53:06.725Z,99858.38
2022-08-22T16:55:51.080Z,99858.59
2022-08-22T16:58:59.124Z,99857.56
2022-08-22T17:02:03.138Z,99855.91
2022-08-22T17:04:41.393Z,99857.19
2022-08-22T17:07:23.702Z,99850.75
2022-08-22T17:10:23.672Z,99855.09
2022-08-22T17:13:17.096Z,99849.31
2022-08-22T17:16:01.518Z,99852.41
2022-08-22T17:18:49.338Z,99848.91
2022-08-22T17:21:26.033Z,99854.50
2022-08-22T17:24:05.047Z,99856.97
2022-08-22T17:26:49.088Z,99858.22
2022-08-22T17:29:33.298Z,99857.78
2022-08-22T17:32:15.631Z,99855.09
2022-08-22T17:34:53.916Z,99855.31
2022-08-22T17:37:27.361Z,99856.75
2022-08-22T17:40:15.696Z,99856.53
2022-08-22T17:43:01.837Z,99860.47
2022-08-22T17:45:42.408Z,99860.03
2022-08-22T17:48:19.314Z,99862.56
2022-08-22T17:50:54.228Z,99859.88
2022-08-22T17:53:38.662Z,99862.13
2022-08-22T17:56:19.396Z,99855.09
2022-08-22T17:58:55.402Z,99860.28
2022-08-22T18:01:40.535Z,99863.16
2022-08-22T18:04:17.951Z,99865.03
2022-08-22T18:06:56.376Z,99863.78
2022-08-22T18:09:34.751Z,99861.94
2022-08-22T18:12:16.251Z,99867.53
2022-08-22T18:14:53.186Z,99865.88
2022-08-22T18:17:29.086Z,99867.53
2022-08-22T18:20:08.047Z,99865.88
2022-08-22T18:22:45.517Z,99861.09
2022-08-22T18:25:34.006Z,99856.34
2022-08-22T18:28:11.101Z,99867.34
2022-08-22T18:30:53.263Z,99863.38
2022-08-22T18:33:31.052Z,99866.47
2022-08-22T18:36:10.226Z,99865.06
2022-08-22T18:38:50.084Z,99862.38
2022-08-22T18:41:27.648Z,99858.00
2022-08-22T18:44:00.169Z,99865.06
2022-08-22T18:46:47.050Z,99866.28
2022-08-22T18:49:54.118Z,99867.13
2022-08-22T18:52:35.617Z,99865.47
2022-08-22T18:55:33.681Z,99867.13
2022-08-22T18:58:16.152Z,99867.94
2022-08-22T19:01:00.224Z,99867.94
2022-08-22T19:03:41.821Z,99866.28
2022-08-22T19:06:36.857Z,99868.56
2022-08-22T19:09:25.497Z,99871.66
2022-08-22T19:12:04.020Z,99876.22
2022-08-22T19:14:50.872Z,99866.47
2022-08-22T19:17:40.494Z,99869.16
2022-08-22T19:20:32.034Z,99877.22
2022-08-22T19:23:41.858Z,99880.34
2022-08-22T19:26:27.847Z,99882.41
2022-08-22T19:28:59.716Z,99897.25
2022-08-22T19:31:45.784Z,99888.19
2022-08-22T19:34:28.379Z,99895.63
2022-08-22T19:37:32.861Z,99896.66
2022-08-22T19:40:05.315Z,99903.50
2022-08-22T19:42:36.962Z,99901.81
2022-08-22T19:45:19.977Z,99897.28
2022-08-22T19:47:58.051Z,99907.41
2022-08-22T19:50:33.172Z,99908.44
2022-08-22T19:53:28.803Z,99896.06
2022-08-22T19:56:09.378Z,99896.88
2022-08-22T19:58:50.669Z,99901.81
2022-08-22T20:01:40.292Z,99901.44
2022-08-22T20:04:20.673Z,99906.38
2022-08-22T20:07:02.832Z,99911.75
2022-08-22T20:09:44.023Z,99904.94
2022-08-22T20:12:17.514Z,99904.94
2022-08-22T20:14:48.668Z,99907.41
2022-08-22T20:17:40.395Z,99907.22
2022-08-22T20:20:17.426Z,99911.97
2022-08-22T20:22:52.678Z,99905.53
2022-08-22T20:25:42.806Z,99911.75
2022-08-22T20:28:29.801Z,99903.06
2022-08-22T20:31:01.004Z,99910.91
2022-08-22T20:33:32.790Z,99903.91
2022-08-22T20:36:05.336Z,99915.69
2022-08-22T20:38:39.675Z,99915.88
2022-08-22T20:41:20.852Z,99926.84
2022-08-22T20:43:53.151Z,99929.53
2022-08-22T20:46:33.334Z,99922.09
2022-08-22T20:49:02.549Z,99926.19
2022-08-22T20:51:31.699Z,99933.25
2022-08-22T20:54:01.753Z,99929.94
2022-08-22T20:56:52.946Z,99933.84
2022-08-22T20:59:31.994Z,99931.56
2022-08-22T21:02:11.979Z,99932.41
2022-08-22T21:04:48.238Z,99936.13
2022-08-22T21:07:23.668Z,99932.41
2022-08-22T21:10:22.487Z,99941.50
2022-08-22T21:13:20.856Z,99943.16
2022-08-22T21:15:51.288Z,99935.09
2022-08-22T21:18:29.871Z,99940.66
2022-08-22T21:21:12.420Z,99944.81
2022-08-22T21:23:48.689Z,99941.50
2022-08-22T21:26:26.192Z,99945.00
2022-08-22T21:28:58.503Z,99940.25
2022-08-22T21:31:29.789Z,99946.69
2022-08-22T21:33:59.301Z,99939.84
2022-08-22T21:36:30.023Z,99939.44
2022-08-22T21:39:01.656Z,99945.00
2022-08-22T21:41:39.607Z,99953.06
2022-08-22T21:44:36.261Z,99940.66
2022-08-22T21:47:30.231Z,99939.03
2022-08-22T21:50:06.782Z,99947.09
2022-08-22T21:52:37.575Z,99947.09
2022-08-22T21:55:26.661Z,99942.72
2022-08-22T21:58:10.499Z,99948.09
2022-08-22T22:00:49.725Z,99948.09
2022-08-22T22:03:20.475Z,99952.66
2022-08-22T22:05:50.228Z,99949.34
2022-08-22T22:08:19.320Z,99945.63
2022-08-22T22:10:48.756Z,99949.75
2022-08-22T22:13:20.418Z,99943.97
2022-08-22T22:15:53.717Z,99951.81
2022-08-22T22:18:25.130Z,99957.19
2022-08-22T22:20:55.727Z,99955.13
2022-08-22T22:23:25.208Z,99962.16
2022-08-22T22:25:54.586Z,99961.13
2022-08-22T22:28:26.674Z,99969.38
2022-08-22T22:30:55.030Z,99957.78
2022-08-22T22:33:25.904Z,99955.31
2022-08-22T22:35:56.083Z,99958.22
2022-08-22T22:38:24.726Z,99962.97
2022-08-22T22:40:52.988Z,99961.31
2022-08-22T22:43:21.343Z,99967.25
2022-08-22T22:45:50.996Z,99966.28
2022-08-22T22:48:24.277Z,99973.72
2022-08-22T22:50:53.725Z,99974.50
2022-08-22T22:53:33.774Z,99963.38
2022-08-22T22:56:09.219Z,99963.59
2022-08-22T22:58:38.989Z,99967.09
2022-08-22T23:01:13.525Z,99979.47
2022-08-22T23:03:42.611Z,99977.19
2022-08-22T23:06:13.715Z,99982.41
2022-08-22T23:08:42.512Z,99985.25
2022-08-22T23:11:13.092Z,100000.94
2022-08-22T23:13:43.069Z,99988.19
2022-08-22T23:16:16.229Z,100006.72
2022-08-22T23:18:44.836Z,100009.63
2022-08-22T23:21:16.104Z,100000.09
2022-08-22T23:23:45.184Z,100005.06
2022-08-22T23:26:14.182Z,100004.44
2022-08-22T23:28:42.763Z,100012.50
2022-08-22T23:31:15.121Z,100007.34
2022-08-22T23:33:44.774Z,100020.56
2022-08-22T23:36:14.938Z,100010.81
2022-08-22T23:38:43.668Z,100020.13
2022-08-22T23:41:13.818Z,100005.69
2022-08-22T23:43:43.402Z,100014.34
2022-08-22T23:46:14.274Z,100011.66
2022-08-22T23:48:42.892Z,100010.63
2022-08-22T23:51:11.982Z,100021.16
2022-08-22T23:53:40.411Z,100027.38
2022-08-22T23:56:19.568Z,100035.63
2022-08-22T23:58:49.070Z,100032.75
